Flight Track Log - Related Links

Times and Time Zones

All times are in EDT time to prevent confusion due to time zone crossing. See the SWA2874 flight status page for this flight to view local times or setup timezone preferences in your user account.

Time Position Orientation Groundspeed Altitude Reporting Facility
EDT Latitude Longitude Course Direction KTS MPH feet Rate Location/Type
Fri 07:18:41 PM 34.8486 -82.1811 47° Northeast 140 161 5,800  Level Atlanta Center
Fri 07:19:41 PM 34.9039 -82.1089 47° Northeast 178 205 9,600 3,150 Climbing Atlanta Center
Fri 07:20:41 PM 34.9611 -82.0367 46° Northeast 259 298 12,100 2,450 Climbing Atlanta Center
Fri 07:21:41 PM 35.0156 -81.9211 60° Northeast 351 404 14,500 3,050 Climbing Atlanta Center
Fri 07:22:41 PM 35.0844 -81.8053 54° Northeast 412 474 18,200 3,150 Climbing Atlanta Center
Fri 07:23:41 PM 35.1528 -81.6686 59° Northeast 423 487 20,800 2,400 Climbing Atlanta Center
Fri 07:24:41 PM 35.2275 -81.5344 56° Northeast 445 512 23,000 2,350 Climbing Atlanta Center
Fri 07:25:41 PM 35.3039 -81.3972 56° Northeast 475 547 25,500 2,400 Climbing Atlanta Center
Fri 07:26:41 PM 35.3758 -81.2572 58° Northeast 481 554 27,800 2,250 Climbing Atlanta Center
Fri 07:27:41 PM 35.4478 -81.1172 58° Northeast 488 562 30,000 2,050 Climbing Atlanta Center
Fri 07:28:41 PM 35.5214 -80.9769 57° Northeast 488 562 31,900 1,900 Climbing Atlanta Center
Fri 07:29:41 PM 35.5953 -80.8411 56° Northeast 488 562 33,800 1,900 Climbing Atlanta Center
Fri 07:30:41 PM 35.6667 -80.7031 57° Northeast 488 562 35,700 1,750 Climbing Atlanta Center
Fri 07:31:41 PM 35.7381 -80.5694 57° Northeast 477 549 37,300 1,750 Climbing Atlanta Center
Fri 07:32:41 PM 35.8072 -80.4308 58° Northeast 472 543 39,200 1,800 Climbing Atlanta Center
Fri 07:33:41 PM 35.8742 -80.3050 57° Northeast 466 536 40,900 688 Climbing Atlanta Center
Fri 07:35:18 PM 35.9750 -80.1067 58° Northeast 453 521 41,000 38 Climbing Washington Center
Fri 07:36:18 PM 36.0511 -79.9672 56° Northeast 447 514 41,000  Level Washington Center
Fri 07:37:19 PM 36.1267 -79.8350 55° Northeast 452 520 41,000 -151 Level Washington Center
Fri 07:38:17 PM 36.2022 -79.7028 55° Northeast 458 527 40,700 -706 Descending Washington Center
Fri 07:39:18 PM 36.2736 -79.5725 56° Northeast 458 527 39,600 -843 Descending Washington Center
Fri 07:40:18 PM 36.3311 -79.4697 55° Northeast 453 521 39,000 -300 Descending Washington Center
Fri 07:41:18 PM 36.4153 -79.3164 56° Northeast 448 516 39,000 -149 Level Washington Center
Fri 07:42:19 PM 36.4814 -79.1983 55° Northeast 454 522 38,700 -1,475 Descending Washington Center
Fri 07:43:20 PM 36.5650 -79.0597 53° Northeast 454 522 36,000 -3,203 Descending Washington Center
Fri 07:44:17 PM 36.6417 -78.9236 55° Northeast 461 531 32,400 -3,538 Descending Washington Center
Fri 07:45:17 PM 36.7167 -78.7764 58° Northeast 485 558 29,100 -1,686 Descending Washington Center
Fri 07:46:18 PM 36.7956 -78.6369 55° Northeast 492 566 29,000 -443 Descending Washington Center
Fri 07:47:19 PM 36.8697 -78.4997 56° Northeast 492 566 28,200 -496 Descending Washington Center
Fri 07:48:19 PM 36.9439 -78.3647 55° Northeast 482 555 28,000 -610 Descending Washington Center
Fri 07:49:17 PM 37.0136 -78.2347 56° Northeast 482 555 27,000 -1,059 Descending Washington Center
Fri 07:50:18 PM 37.1000 -78.0944 52° Northeast 469 540 25,900 -1,082 Descending Washington Center
Fri 07:51:19 PM 37.1978 -78.0167 32° Northeast 426 490 24,800 -1,059 Descending Washington Center
Fri 07:52:17 PM 37.2928 -77.9492 29° Northeast 412 474 23,800 -915 Descending Washington Center
Fri 07:53:17 PM 37.3881 -77.8789 30° Northeast 398 458 23,000 -393 Descending Washington Center
Fri 07:54:19 PM 37.4811 -77.8111 30° Northeast 387 445 23,000  Level Washington Center
Fri 07:55:17 PM 37.5742 -77.7431 30° Northeast 387 445 23,000  Level Washington Center
Fri 07:56:18 PM 37.6692 -77.6722 31° Northeast 382 440 23,000  Level Washington Center
Fri 07:57:18 PM 37.7644 -77.6014 30° Northeast 387 445 23,000 -504 Level Washington Center
Fri 07:58:17 PM 37.8594 -77.5303 31° Northeast 387 445 22,000 -1,000 Descending Washington Center
Fri 07:59:18 PM 37.9544 -77.4589 31° Northeast 387 445 21,000 -793 Descending Washington Center
Fri 08:00:18 PM 38.0386 -77.4003 29° Northeast 387 445 20,400 -496 Descending Washington Center
Fri 08:01:19 PM 38.1314 -77.3286 31° Northeast 382 440 20,000 -908 Descending Washington Center
Fri 08:02:17 PM 38.2242 -77.2594 30° Northeast 382 440 18,600 -1,550 Descending Washington Center
Fri 08:03:19 PM 38.3128 -77.1928 31° Northeast 382 440 16,900 -1,805 Descending Washington Center
Fri 08:04:20 PM 38.3992 -77.1178 34° Northeast 372 428 14,900 -1,881 Descending Washington Center
Fri 08:05:17 PM 38.4733 -77.0317 42° Northeast 366 421 13,200 -1,487 Descending Washington Center
Fri 08:06:17 PM 38.5431 -76.9428 45° Northeast 360 414 12,000 -1,339 Descending Washington Center
Fri 08:07:18 PM 38.6128 -76.8617 42° Northeast 347 399 10,500 -1,091 Descending Washington Center
Fri 08:08:18 PM 38.6719 -76.7856 45° Northeast 319 367 9,800 -1,091 Descending Washington Center
Fri 08:09:19 PM 38.7228 -76.7067 50° Northeast 294 338 8,300 -1,610 Descending Washington Center
Fri 08:10:21 PM 38.7667 -76.6000 62° Northeast 287 330 6,500 -1,426 Descending Potomac TRACON
Fri 08:11:21 PM 38.8167 -76.5333 46° Northeast 286 329 5,400 -1,240 Descending Potomac TRACON
Fri 08:12:22 PM 38.9000 -76.5333 360° North 266 306 4,000 -694 Descending Potomac TRACON
Fri 08:13:22 PM 38.9667 -76.5500 349° North 258 297 4,000 -350 Level Potomac TRACON
Fri 08:14:22 PM 39.0333 -76.5333 11° North 226 260 3,300 -900 Descending Potomac TRACON
Fri 08:15:22 PM 39.0833 -76.5833 322° Northwest 198 228 2,200 -1,000 Descending Potomac TRACON
Fri 08:16:22 PM 39.1167 -76.6167 322° Northwest 147 169 1,300 -793 Descending Potomac TRACON
Fri 08:17:23 PM 39.1500 -76.6500 322° Northwest 131 151 600 -689 Descending Potomac TRACON
Fri 08:19:00 PM 39.1667 -76.6667 339° North  Level FlightAware Approximate
Fri 08:26:00 PM 39.1754 -76.6683 339° North  Level Estimated
Fri 08:27:00 PM 39.1754 -76.6683 339° North  Level Estimated
Fri 08:28:00 PM 39.1754 -76.6683 339° North  Level Estimated
Fri 08:29:00 PM 39.1754 -76.6683 339° North  Level Estimated
Fri 08:30:00 PM 39.1754 -76.6683 339° North  Level Estimated
Fri 08:31:00 PM 39.1754 -76.6683 339° North  Level Estimated

Login

Don't have an account? Register now (free) for customized features, flight alerts, and more!